createdAt,value
2022-12-08T00:02:10.557Z,53.46
2022-12-08T00:05:32.699Z,53.73
2022-12-08T00:08:54.595Z,53.70
2022-12-08T00:12:01.060Z,53.68
2022-12-08T00:15:04.609Z,54.03
2022-12-08T00:18:08.183Z,53.70
2022-12-08T00:21:11.396Z,53.71
2022-12-08T00:24:14.947Z,53.68
2022-12-08T00:27:18.791Z,53.62
2022-12-08T00:30:21.980Z,53.59
2022-12-08T00:33:25.453Z,53.39
2022-12-08T00:36:31.472Z,53.12
2022-12-08T00:39:34.820Z,53.18
2022-12-08T00:42:38.148Z,53.07
2022-12-08T00:45:41.491Z,53.10
2022-12-08T00:48:44.767Z,53.19
2022-12-08T00:51:48.069Z,52.98
2022-12-08T00:54:51.352Z,52.76
2022-12-08T00:57:54.616Z,52.65
2022-12-08T01:00:57.857Z,52.72
2022-12-08T01:04:18.607Z,52.58
2022-12-08T01:07:24.788Z,52.49
2022-12-08T01:10:28.605Z,52.38
2022-12-08T01:13:31.814Z,52.59
2022-12-08T01:16:36.761Z,52.28
2022-12-08T01:19:40.031Z,52.21
2022-12-08T01:22:43.312Z,52.09
2022-12-08T01:25:46.531Z,52.08
2022-12-08T01:28:49.945Z,52.00
2022-12-08T01:31:53.222Z,52.23
2022-12-08T01:34:56.397Z,52.18
2022-12-08T01:37:59.660Z,51.98
2022-12-08T01:41:03.008Z,51.76
2022-12-08T01:44:12.632Z,51.48
2022-12-08T01:47:16.128Z,51.43
2022-12-08T01:50:24.285Z,51.15
2022-12-08T01:53:33.590Z,51.42
2022-12-08T01:56:58.888Z,51.26
2022-12-08T02:00:09.592Z,50.97
2022-12-08T02:03:26.877Z,50.84
2022-12-08T02:06:34.608Z,50.94
2022-12-08T02:09:39.641Z,50.61
2022-12-08T02:12:44.669Z,50.72
2022-12-08T02:15:56.919Z,50.82
2022-12-08T02:19:36.645Z,50.11
2022-12-08T02:23:26.110Z,50.17
2022-12-08T02:26:53.665Z,50.08
2022-12-08T02:30:24.365Z,50.00
2022-12-08T02:33:27.720Z,49.46
2022-12-08T02:37:27.426Z,49.54
2022-12-08T02:40:40.636Z,49.46
2022-12-08T02:43:48.268Z,49.86
2022-12-08T02:47:09.902Z,49.83
2022-12-08T02:50:13.885Z,50.07
2022-12-08T02:53:17.109Z,50.12
2022-12-08T02:56:22.980Z,50.47
2022-12-08T02:59:47.129Z,50.26
2022-12-08T03:03:05.427Z,50.56
2022-12-08T03:06:33.265Z,50.86
2022-12-08T03:10:02.288Z,50.12
2022-12-08T03:13:12.144Z,49.70
2022-12-08T03:16:20.789Z,49.72
2022-12-08T03:19:29.747Z,49.58
2022-12-08T03:22:37.225Z,49.55
2022-12-08T03:25:47.222Z,49.35
2022-12-08T03:28:50.603Z,48.86
2022-12-08T03:32:02.090Z,49.33
2022-12-08T03:35:15.292Z,49.20
2022-12-08T03:38:18.841Z,48.97
2022-12-08T03:44:40.381Z,48.84
2022-12-08T03:47:43.670Z,48.97
2022-12-08T03:50:46.850Z,48.37
2022-12-08T03:53:50.472Z,47.92
2022-12-08T03:56:53.845Z,47.69
2022-12-08T03:59:57.169Z,47.48
2022-12-08T04:03:00.581Z,47.51
2022-12-08T04:06:04.431Z,47.44
2022-12-08T04:09:07.724Z,46.95
2022-12-08T04:12:11.184Z,47.43
2022-12-08T04:15:14.475Z,47.40
2022-12-08T04:18:17.747Z,48.04
2022-12-08T04:21:21.944Z,47.21
2022-12-08T04:24:25.219Z,47.60
2022-12-08T04:27:28.557Z,47.05
2022-12-08T04:30:32.090Z,45.92
2022-12-08T04:33:39.315Z,45.74
2022-12-08T04:36:42.637Z,46.17
2022-12-08T04:39:45.793Z,46.42
2022-12-08T04:42:49.093Z,45.63
2022-12-08T04:45:55.259Z,45.71
2022-12-08T04:48:58.761Z,45.31
2022-12-08T04:52:02.045Z,45.53
2022-12-08T04:55:05.832Z,44.56
2022-12-08T04:58:09.049Z,44.54
2022-12-08T05:01:13.801Z,44.28
2022-12-08T05:04:17.950Z,44.73
2022-12-08T05:07:21.193Z,44.41
2022-12-08T05:10:24.549Z,44.03
2022-12-08T05:13:27.757Z,43.91
2022-12-08T05:16:31.100Z,43.68
2022-12-08T05:19:35.258Z,43.87
2022-12-08T05:22:40.334Z,44.03
2022-12-08T05:25:43.592Z,43.80
2022-12-08T05:28:47.101Z,44.44
2022-12-08T05:31:50.414Z,44.23
2022-12-08T05:34:53.751Z,43.72
2022-12-08T05:37:56.978Z,43.46
2022-12-08T05:41:00.532Z,43.54
2022-12-08T05:44:03.801Z,43.40
2022-12-08T05:47:07.056Z,42.87
2022-12-08T05:50:10.474Z,43.14
2022-12-08T05:53:13.667Z,43.20
2022-12-08T05:56:17.162Z,43.03
2022-12-08T05:59:20.545Z,43.44
2022-12-08T06:02:23.850Z,43.91
2022-12-08T06:05:27.630Z,43.77
2022-12-08T06:08:34.861Z,43.77
2022-12-08T06:11:38.107Z,43.72
2022-12-08T06:14:41.562Z,44.49
2022-12-08T06:17:45.047Z,44.44
2022-12-08T06:20:49.184Z,44.77
2022-12-08T06:23:54.500Z,44.81
2022-12-08T06:26:57.830Z,44.97
2022-12-08T06:30:01.531Z,45.75
2022-12-08T06:33:04.909Z,45.88
2022-12-08T06:36:08.634Z,45.96
2022-12-08T06:39:11.922Z,46.38
2022-12-08T06:42:33.665Z,46.42
2022-12-08T06:45:37.157Z,46.76
2022-12-08T06:48:40.487Z,46.52
2022-12-08T06:51:43.748Z,47.13
2022-12-08T06:54:46.945Z,47.95
2022-12-08T06:57:53.394Z,47.78
2022-12-08T07:00:57.230Z,47.78
2022-12-08T07:04:00.481Z,48.33
2022-12-08T07:07:03.619Z,48.43
2022-12-08T07:10:07.771Z,48.72
2022-12-08T07:13:11.163Z,48.94
2022-12-08T07:16:14.479Z,49.23
2022-12-08T07:19:18.061Z,49.31
2022-12-08T07:22:21.445Z,49.17
2022-12-08T07:25:24.692Z,49.68
2022-12-08T07:28:27.915Z,49.86
2022-12-08T07:31:31.119Z,50.24
2022-12-08T07:34:34.314Z,49.73
2022-12-08T07:37:38.286Z,49.83
2022-12-08T07:40:41.559Z,49.72
2022-12-08T07:43:45.492Z,50.05
2022-12-08T07:50:06.191Z,50.39
2022-12-08T07:53:09.926Z,50.02
2022-12-08T07:56:14.325Z,50.81
2022-12-08T07:59:17.659Z,50.95
2022-12-08T08:02:24.969Z,51.35
2022-12-08T08:05:29.166Z,51.22
2022-12-08T08:08:32.918Z,51.59
2022-12-08T08:11:36.254Z,51.02
2022-12-08T08:14:39.517Z,51.40
2022-12-08T08:17:42.762Z,51.40
2022-12-08T08:20:45.986Z,51.41
2022-12-08T08:23:49.426Z,51.62
2022-12-08T08:26:54.251Z,51.57
2022-12-08T08:29:57.434Z,51.22
2022-12-08T08:33:01.479Z,51.45
2022-12-08T08:36:08.949Z,51.74
2022-12-08T08:39:13.207Z,51.35
2022-12-08T08:42:16.439Z,51.95
2022-12-08T08:45:19.715Z,51.67
2022-12-08T08:48:22.974Z,51.84
2022-12-08T08:51:28.155Z,52.24
2022-12-08T08:54:34.272Z,52.54
2022-12-08T08:57:37.666Z,52.62
2022-12-08T09:00:40.972Z,52.64
2022-12-08T09:03:45.173Z,52.68
2022-12-08T09:06:52.269Z,53.06
2022-12-08T09:10:01.349Z,53.05
2022-12-08T09:13:09.608Z,53.15
2022-12-08T09:16:13.319Z,53.41
2022-12-08T09:19:17.201Z,53.52
2022-12-08T09:22:24.729Z,54.00
2022-12-08T09:25:30.979Z,53.71
2022-12-08T09:28:34.380Z,53.90
2022-12-08T09:31:38.220Z,54.02
2022-12-08T09:34:48.969Z,53.90
2022-12-08T09:37:55.186Z,54.14
2022-12-08T09:40:59.339Z,53.80
2022-12-08T09:44:47.055Z,54.13
2022-12-08T09:48:31.384Z,54.09
2022-12-08T09:51:39.300Z,54.29
2022-12-08T09:54:42.662Z,54.30
2022-12-08T09:57:46.074Z,54.14
2022-12-08T10:00:49.405Z,54.43
2022-12-08T10:03:55.450Z,54.71
2022-12-08T10:07:05.823Z,54.69
2022-12-08T10:28:12.859Z,54.60
2022-12-08T10:31:18.405Z,54.60
2022-12-08T10:34:25.636Z,54.80
2022-12-08T10:37:28.925Z,55.09
2022-12-08T10:40:42.320Z,55.29
2022-12-08T10:44:00.055Z,55.15
2022-12-08T10:47:13.328Z,55.32
2022-12-08T10:50:21.392Z,55.35
2022-12-08T10:53:27.261Z,55.79
2022-12-08T10:56:32.219Z,55.64
2022-12-08T10:59:35.617Z,55.64
2022-12-08T11:03:01.496Z,55.74
2022-12-08T11:06:24.802Z,55.78
2022-12-08T11:09:50.198Z,55.84
2022-12-08T11:12:53.451Z,56.00
2022-12-08T11:16:00.302Z,56.13
2022-12-08T11:19:08.129Z,56.39
2022-12-08T11:22:34.834Z,56.29
2022-12-08T11:25:38.259Z,56.29
2022-12-08T11:28:43.309Z,56.69
2022-12-08T11:32:04.373Z,56.55
2022-12-08T11:35:19.815Z,56.80
2022-12-08T11:38:26.954Z,56.68
2022-12-08T11:41:43.765Z,57.08
2022-12-08T11:44:57.599Z,56.90
2022-12-08T11:48:12.507Z,56.93
2022-12-08T11:51:51.860Z,56.55
2022-12-08T11:55:18.040Z,56.63
2022-12-08T11:58:51.269Z,56.50
2022-12-08T12:01:54.823Z,56.45
2022-12-08T12:05:33.672Z,56.53
2022-12-08T12:09:17.598Z,56.30
2022-12-08T12:12:31.654Z,56.09
2022-12-08T12:16:14.904Z,56.18
2022-12-08T12:19:21.086Z,55.98
2022-12-08T12:22:51.145Z,55.96
2022-12-08T12:26:01.560Z,55.94
2022-12-08T12:29:20.461Z,56.20
2022-12-08T12:32:24.976Z,55.90
2022-12-08T12:35:39.252Z,56.03
2022-12-08T12:39:06.923Z,56.07
2022-12-08T12:42:46.530Z,56.16
2022-12-08T12:45:49.875Z,56.32
2022-12-08T12:48:53.972Z,56.28
2022-12-08T12:51:57.240Z,56.26
2022-12-08T12:55:00.392Z,56.18
2022-12-08T12:58:04.921Z,56.34
2022-12-08T13:01:11.309Z,56.23
2022-12-08T13:04:14.775Z,56.24
2022-12-08T13:07:33.080Z,56.48
2022-12-08T13:10:40.620Z,56.13
2022-12-08T13:14:04.648Z,56.24
2022-12-08T13:17:14.196Z,56.26
2022-12-08T13:20:28.074Z,56.42
2022-12-08T13:23:39.051Z,56.42
2022-12-08T13:26:46.747Z,56.30
2022-12-08T13:30:31.812Z,56.43
2022-12-08T13:33:42.728Z,56.61
2022-12-08T13:36:59.056Z,56.76
2022-12-08T13:40:20.953Z,56.66
2022-12-08T13:43:48.270Z,56.92
2022-12-08T13:57:40.571Z,56.94
2022-12-08T14:00:43.928Z,57.04
2022-12-08T14:07:23.528Z,57.15
2022-12-08T14:10:28.144Z,57.04
2022-12-08T14:13:32.609Z,57.07
2022-12-08T14:16:42.365Z,57.06
2022-12-08T14:19:54.124Z,57.17
2022-12-08T14:23:00.451Z,57.23
2022-12-08T14:26:06.022Z,57.34
2022-12-08T14:29:10.577Z,57.51
2022-12-08T14:32:31.006Z,57.69
2022-12-08T14:35:37.471Z,57.83
2022-12-08T14:38:40.919Z,57.92
2022-12-08T14:42:01.923Z,57.90
2022-12-08T14:45:11.038Z,57.84
2022-12-08T14:48:21.409Z,57.88
2022-12-08T14:51:33.752Z,57.84
2022-12-08T14:54:37.120Z,57.82
2022-12-08T14:57:40.424Z,57.68
2022-12-08T15:00:53.627Z,57.68
2022-12-08T15:04:27.776Z,57.56
2022-12-08T15:07:53.242Z,57.70
2022-12-08T15:11:20.242Z,57.65
2022-12-08T15:14:36.544Z,57.83
2022-12-08T15:18:12.758Z,57.86
2022-12-08T15:21:15.983Z,57.80
2022-12-08T15:24:22.813Z,57.62
2022-12-08T15:27:29.056Z,57.49
2022-12-08T15:30:32.637Z,57.40
2022-12-08T15:33:38.207Z,57.64
2022-12-08T15:36:44.149Z,57.60
2022-12-08T15:39:50.125Z,57.55
2022-12-08T15:42:53.948Z,57.52
2022-12-08T15:46:00.095Z,57.62
2022-12-08T15:49:03.885Z,57.66
2022-12-08T15:52:15.541Z,57.83
2022-12-08T15:55:20.514Z,57.96
2022-12-08T16:01:49.418Z,58.26
2022-12-08T16:12:09.875Z,58.62
2022-12-08T16:18:40.723Z,58.60
2022-12-08T16:25:18.391Z,58.45
2022-12-08T16:28:52.928Z,58.51
2022-12-08T16:31:45.883Z,58.58
2022-12-08T16:34:50.332Z,58.66
2022-12-08T16:37:53.613Z,58.59
2022-12-08T16:41:15.188Z,58.63
2022-12-08T16:44:18.522Z,58.64
2022-12-08T16:47:21.741Z,58.54
2022-12-08T16:50:35.667Z,58.32
2022-12-08T16:53:38.885Z,58.29
2022-12-08T16:56:44.724Z,58.08
2022-12-08T16:59:47.901Z,57.88
2022-12-08T17:02:52.007Z,57.88
2022-12-08T17:05:55.266Z,57.84
2022-12-08T17:08:58.440Z,57.94
2022-12-08T17:12:04.002Z,58.02
2022-12-08T17:15:13.892Z,58.27
2022-12-08T17:18:19.460Z,58.42
2022-12-08T17:21:22.730Z,58.52
2022-12-08T17:24:29.644Z,58.55
2022-12-08T17:27:33.144Z,58.61
2022-12-08T17:30:39.199Z,58.59
2022-12-08T17:33:42.898Z,58.53
2022-12-08T17:36:46.101Z,58.61
2022-12-08T17:39:49.352Z,58.45
2022-12-08T17:42:52.591Z,58.41
2022-12-08T17:45:56.826Z,58.49
2022-12-08T17:48:59.972Z,58.56
2022-12-08T17:52:05.397Z,58.48
2022-12-08T17:55:09.069Z,58.43
2022-12-08T17:58:12.336Z,58.29
2022-12-08T18:01:15.650Z,58.35
2022-12-08T18:04:19.074Z,58.50
2022-12-08T18:07:22.408Z,58.48
2022-12-08T18:10:25.661Z,58.59
2022-12-08T18:13:29.020Z,58.62
2022-12-08T18:16:32.279Z,58.65
2022-12-08T18:19:35.562Z,58.58
2022-12-08T18:22:38.858Z,58.52
2022-12-08T18:25:42.127Z,58.52
2022-12-08T18:28:45.551Z,58.56
2022-12-08T18:31:48.982Z,58.56
2022-12-08T18:34:52.241Z,58.62
2022-12-08T18:37:55.980Z,58.83
2022-12-08T18:41:12.476Z,58.83
2022-12-08T18:44:15.818Z,58.94
2022-12-08T18:47:21.294Z,59.01
2022-12-08T18:50:24.699Z,59.02
2022-12-08T18:53:27.878Z,59.00
2022-12-08T18:56:33.472Z,59.04
2022-12-08T18:59:36.620Z,58.93
2022-12-08T19:02:40.593Z,58.82
2022-12-08T19:05:43.943Z,58.70
2022-12-08T19:08:49.022Z,58.70
2022-12-08T19:11:52.400Z,58.69
2022-12-08T19:14:55.677Z,58.65
2022-12-08T19:18:00.436Z,58.62
2022-12-08T19:21:03.708Z,58.65
2022-12-08T19:24:07.604Z,58.59
2022-12-08T19:27:11.003Z,58.60
2022-12-08T19:30:14.990Z,58.72
2022-12-08T19:33:18.257Z,58.83
2022-12-08T19:36:23.187Z,58.71
2022-12-08T19:39:44.693Z,58.69
2022-12-08T19:43:06.093Z,58.65
2022-12-08T19:46:09.699Z,58.59
2022-12-08T19:49:13.114Z,58.57
2022-12-08T19:52:16.711Z,58.45
2022-12-08T19:55:20.116Z,58.43
2022-12-08T19:58:24.614Z,58.44
2022-12-08T20:01:27.908Z,58.34
2022-12-08T20:04:31.404Z,58.27
2022-12-08T20:07:35.270Z,58.13
2022-12-08T20:10:41.686Z,58.30
2022-12-08T20:13:46.268Z,58.42
2022-12-08T20:16:49.883Z,58.16
2022-12-08T20:19:53.656Z,57.85
2022-12-08T20:22:57.251Z,57.87
2022-12-08T20:26:07.529Z,57.95
2022-12-08T20:29:15.375Z,58.04
2022-12-08T20:32:18.852Z,58.00
2022-12-08T20:35:22.304Z,58.20
2022-12-08T20:38:25.577Z,58.43
2022-12-08T20:41:28.837Z,58.33
2022-12-08T20:44:32.126Z,58.27
2022-12-08T20:47:36.548Z,58.29
2022-12-08T20:50:40.003Z,58.53
2022-12-08T20:53:43.386Z,58.46
2022-12-08T20:56:48.492Z,58.65
2022-12-08T20:59:52.306Z,58.69
2022-12-08T21:02:57.064Z,58.70
2022-12-08T21:06:02.530Z,58.67
2022-12-08T21:09:05.871Z,58.69
2022-12-08T21:12:09.379Z,58.31
2022-12-08T21:15:13.222Z,58.14
2022-12-08T21:18:17.670Z,58.13
2022-12-08T21:21:23.257Z,58.05
2022-12-08T21:24:31.991Z,57.89
2022-12-08T21:27:38.685Z,57.87
2022-12-08T21:30:43.828Z,57.79
2022-12-08T21:33:47.054Z,57.82
2022-12-08T21:36:51.144Z,57.82
2022-12-08T21:39:54.690Z,57.83
2022-12-08T21:42:57.992Z,57.82
2022-12-08T21:46:01.415Z,57.80
2022-12-08T21:49:05.097Z,57.91
2022-12-08T21:52:11.646Z,58.00
2022-12-08T21:55:16.396Z,58.20
2022-12-08T21:58:19.770Z,58.20
2022-12-08T22:01:23.191Z,58.09
2022-12-08T22:04:29.649Z,58.08
2022-12-08T22:07:43.858Z,58.28
2022-12-08T22:10:50.534Z,58.33
2022-12-08T22:13:53.882Z,58.45
2022-12-08T22:16:57.176Z,58.67
2022-12-08T22:20:00.612Z,58.63
2022-12-08T22:23:04.151Z,58.69
2022-12-08T22:26:08.730Z,58.89
2022-12-08T22:29:12.196Z,58.87
2022-12-08T22:32:16.144Z,58.75
2022-12-08T22:35:21.879Z,58.76
2022-12-08T22:38:26.080Z,58.79
2022-12-08T22:41:29.444Z,58.92
2022-12-08T22:44:34.467Z,58.77
2022-12-08T22:47:37.859Z,58.94
2022-12-08T22:50:41.852Z,58.77
2022-12-08T22:53:45.628Z,59.14
2022-12-08T22:56:48.837Z,58.71
2022-12-08T22:59:53.622Z,58.66
2022-12-08T23:02:57.090Z,59.04
2022-12-08T23:06:00.733Z,58.65
2022-12-08T23:09:04.293Z,58.91
2022-12-08T23:12:08.239Z,58.59
2022-12-08T23:15:11.624Z,58.80
2022-12-08T23:18:16.650Z,58.55
2022-12-08T23:21:21.023Z,58.22
2022-12-08T23:24:24.560Z,58.47
2022-12-08T23:27:27.931Z,58.35
2022-12-08T23:30:31.608Z,58.79
2022-12-08T23:33:35.107Z,58.40
2022-12-08T23:36:41.840Z,58.62
2022-12-08T23:39:45.145Z,58.70
2022-12-08T23:42:48.959Z,58.43
2022-12-08T23:45:52.267Z,58.33
2022-12-08T23:48:55.588Z,58.88
2022-12-08T23:51:58.943Z,58.84
2022-12-08T23:55:02.145Z,58.85
2022-12-08T23:58:05.625Z,59.16
